createdAt,value
2023-03-20T00:02:08.266Z,8.17
2023-03-20T00:04:36.074Z,8.17
2023-03-20T00:07:04.101Z,8.17
2023-03-20T00:09:33.074Z,8.16
2023-03-20T00:12:00.760Z,8.15
2023-03-20T00:14:28.525Z,8.15
2023-03-20T00:16:56.298Z,8.14
2023-03-20T00:19:23.954Z,8.11
2023-03-20T00:21:51.713Z,8.10
2023-03-20T00:24:19.472Z,8.08
2023-03-20T00:26:47.142Z,8.08
2023-03-20T00:29:15.000Z,8.08
2023-03-20T00:31:42.719Z,8.06
2023-03-20T00:34:10.530Z,8.04
2023-03-20T00:36:38.194Z,8.01
2023-03-20T00:39:05.852Z,7.99
2023-03-20T00:41:33.515Z,7.96
2023-03-20T00:44:01.490Z,7.94
2023-03-20T00:46:29.131Z,7.92
2023-03-20T00:48:57.093Z,7.89
2023-03-20T00:51:24.878Z,7.89
2023-03-20T00:53:52.656Z,7.88
2023-03-20T00:56:20.407Z,7.89
2023-03-20T00:58:48.792Z,7.90
2023-03-20T01:01:16.539Z,7.92
2023-03-20T01:03:44.722Z,7.93
2023-03-20T01:06:12.394Z,7.96
2023-03-20T01:08:40.045Z,7.97
2023-03-20T01:11:07.705Z,7.97
2023-03-20T01:13:35.476Z,7.96
2023-03-20T01:16:03.267Z,7.96
2023-03-20T01:18:31.104Z,7.95
2023-03-20T01:20:58.766Z,7.94
2023-03-20T01:23:27.139Z,7.94
2023-03-20T01:25:54.804Z,7.93
2023-03-20T01:28:22.878Z,7.92
2023-03-20T01:30:50.866Z,7.91
2023-03-20T01:33:18.627Z,7.88
2023-03-20T01:35:46.702Z,7.86
2023-03-20T01:38:14.448Z,7.83
2023-03-20T01:40:42.099Z,7.80
2023-03-20T01:43:09.764Z,7.78
2023-03-20T01:45:37.645Z,7.77
2023-03-20T01:48:06.726Z,7.75
2023-03-20T01:50:34.387Z,7.73
2023-03-20T01:53:02.154Z,7.70
2023-03-20T01:55:29.815Z,7.66
2023-03-20T01:57:57.475Z,7.65
2023-03-20T02:00:25.968Z,7.64
2023-03-20T02:02:55.052Z,7.63
2023-03-20T02:05:22.816Z,7.63
2023-03-20T02:07:50.500Z,7.63
2023-03-20T02:10:19.164Z,7.62
2023-03-20T02:12:47.543Z,7.61
2023-03-20T02:15:15.620Z,7.62
2023-03-20T02:17:43.796Z,7.63
2023-03-20T02:20:11.548Z,7.63
2023-03-20T02:22:39.213Z,7.65
2023-03-20T02:25:06.977Z,7.66
2023-03-20T02:27:34.643Z,7.66
2023-03-20T02:30:02.401Z,7.64
2023-03-20T02:32:30.062Z,7.62
2023-03-20T02:34:57.724Z,7.60
2023-03-20T02:37:25.387Z,7.57
2023-03-20T02:39:53.051Z,7.54
2023-03-20T02:42:20.810Z,7.51
2023-03-20T02:44:48.481Z,7.49
2023-03-20T02:47:16.346Z,7.48
2023-03-20T02:49:43.998Z,7.46
2023-03-20T02:52:11.764Z,7.45
2023-03-20T02:54:39.544Z,7.44
2023-03-20T02:57:07.188Z,7.44
2023-03-20T02:59:34.860Z,7.45
2023-03-20T03:02:02.508Z,7.46
2023-03-20T03:04:30.178Z,7.47
2023-03-20T03:06:58.756Z,7.46
2023-03-20T03:09:27.344Z,7.48
2023-03-20T03:11:55.109Z,7.49
2023-03-20T03:14:22.769Z,7.50
2023-03-20T03:16:50.505Z,7.51
2023-03-20T03:19:18.509Z,7.52
2023-03-20T03:21:46.366Z,7.53
2023-03-20T03:24:14.031Z,7.53
2023-03-20T03:26:42.497Z,7.54
2023-03-20T03:29:10.172Z,7.54
2023-03-20T03:31:37.922Z,7.54
2023-03-20T03:34:05.904Z,7.53
2023-03-20T03:36:33.563Z,7.53
2023-03-20T03:39:01.342Z,7.53
2023-03-20T03:41:29.092Z,7.52
2023-03-20T03:43:57.064Z,7.51
2023-03-20T03:46:24.864Z,7.49
2023-03-20T03:48:52.579Z,7.47
2023-03-20T03:51:20.464Z,7.45
2023-03-20T03:53:49.347Z,7.42
2023-03-20T03:56:17.077Z,7.41
2023-03-20T03:58:44.987Z,7.39
2023-03-20T04:01:12.746Z,7.39
2023-03-20T04:03:40.404Z,7.36
2023-03-20T04:06:08.171Z,7.35
2023-03-20T04:08:36.043Z,7.35
2023-03-20T04:11:03.805Z,7.34
2023-03-20T04:13:31.572Z,7.34
2023-03-20T04:15:59.247Z,7.33
2023-03-20T04:18:26.989Z,7.33
2023-03-20T04:20:54.964Z,7.33
2023-03-20T04:23:22.953Z,7.32
2023-03-20T04:25:51.000Z,7.32
2023-03-20T04:28:19.685Z,7.32
2023-03-20T04:30:48.386Z,7.32
2023-03-20T04:33:16.584Z,7.32
2023-03-20T04:35:44.348Z,7.33
2023-03-20T04:38:12.182Z,7.34
2023-03-20T04:40:39.838Z,7.34
2023-03-20T04:43:07.600Z,7.34
2023-03-20T04:45:35.429Z,7.34
2023-03-20T04:48:03.333Z,7.34
2023-03-20T04:50:31.205Z,7.34
2023-03-20T04:52:58.862Z,7.34
2023-03-20T04:55:26.531Z,7.34
2023-03-20T04:57:54.195Z,7.32
2023-03-20T05:00:21.956Z,7.32
2023-03-20T05:02:49.729Z,7.31
2023-03-20T05:05:17.481Z,7.30
2023-03-20T05:07:45.447Z,7.30
2023-03-20T05:10:13.112Z,7.31
2023-03-20T05:12:40.974Z,7.30
2023-03-20T05:15:08.589Z,7.31
2023-03-20T05:17:36.950Z,7.32
2023-03-20T05:20:05.386Z,7.33
2023-03-20T05:22:33.054Z,7.34
2023-03-20T05:25:01.636Z,7.35
2023-03-20T05:27:29.399Z,7.36
2023-03-20T05:29:57.057Z,7.37
2023-03-20T05:32:24.722Z,7.38
2023-03-20T05:34:53.302Z,7.39
2023-03-20T05:37:20.970Z,7.41
2023-03-20T05:39:48.636Z,7.42
2023-03-20T05:42:16.288Z,7.44
2023-03-20T05:44:44.264Z,7.44
2023-03-20T05:47:12.034Z,7.45
2023-03-20T05:49:39.793Z,7.46
2023-03-20T05:52:08.189Z,7.47
2023-03-20T05:54:35.938Z,7.49
2023-03-20T05:57:03.714Z,7.53
2023-03-20T05:59:31.459Z,7.56
2023-03-20T06:01:59.126Z,7.57
2023-03-20T06:04:26.886Z,7.59
2023-03-20T06:06:54.548Z,7.62
2023-03-20T06:09:22.309Z,7.64
2023-03-20T06:11:49.986Z,7.67
2023-03-20T06:14:17.734Z,7.69
2023-03-20T06:16:45.715Z,7.70
2023-03-20T06:19:13.366Z,7.73
2023-03-20T06:21:41.336Z,7.75
2023-03-20T06:24:08.996Z,7.78
2023-03-20T06:26:36.659Z,7.81
2023-03-20T06:29:04.773Z,7.84
2023-03-20T06:31:32.540Z,7.88
2023-03-20T06:34:00.259Z,7.92
2023-03-20T06:36:27.916Z,7.97
2023-03-20T06:38:55.987Z,8.02
2023-03-20T06:41:34.401Z,8.06
2023-03-20T06:44:02.646Z,8.09
2023-03-20T06:46:30.416Z,8.12
2023-03-20T06:48:58.124Z,8.16
2023-03-20T06:51:25.973Z,8.21
2023-03-20T06:53:53.739Z,8.27
2023-03-20T06:56:21.391Z,8.32
2023-03-20T06:58:49.053Z,8.39
2023-03-20T07:01:20.744Z,8.45
2023-03-20T07:03:48.987Z,8.52
2023-03-20T07:06:18.595Z,8.60
2023-03-20T07:08:46.261Z,8.68
2023-03-20T07:11:14.739Z,8.76
2023-03-20T07:13:42.402Z,8.84
2023-03-20T07:16:10.131Z,8.93
2023-03-20T07:18:37.832Z,9.03
2023-03-20T07:21:05.592Z,9.12
2023-03-20T07:23:34.695Z,9.20
2023-03-20T07:26:02.666Z,9.28
2023-03-20T07:28:30.954Z,9.37
2023-03-20T07:30:58.703Z,9.44
2023-03-20T07:33:26.666Z,9.50
2023-03-20T07:35:54.348Z,9.55
2023-03-20T07:38:22.092Z,9.58
2023-03-20T07:40:49.860Z,9.62
2023-03-20T07:43:17.832Z,9.65
2023-03-20T07:45:45.600Z,9.68
2023-03-20T07:48:13.346Z,9.71
2023-03-20T07:50:41.116Z,9.74
2023-03-20T07:53:08.746Z,9.79
2023-03-20T07:55:36.788Z,9.84
2023-03-20T07:58:04.709Z,9.88
2023-03-20T08:00:32.371Z,9.94
2023-03-20T08:03:00.216Z,9.98
2023-03-20T08:05:28.206Z,10.03
2023-03-20T08:07:56.382Z,10.08
2023-03-20T08:10:24.352Z,10.13
2023-03-20T08:12:51.990Z,10.20
2023-03-20T08:15:19.675Z,10.27
2023-03-20T08:17:47.340Z,10.34
2023-03-20T08:20:15.113Z,10.43
2023-03-20T08:22:43.072Z,10.51
2023-03-20T08:25:10.742Z,10.61
2023-03-20T08:27:39.006Z,10.72
2023-03-20T08:30:07.190Z,10.82
2023-03-20T08:32:34.873Z,10.92
2023-03-20T08:35:02.769Z,11.01
2023-03-20T08:37:30.482Z,11.08
2023-03-20T08:39:58.137Z,11.14
2023-03-20T08:42:25.903Z,11.19
2023-03-20T08:44:53.666Z,11.23
2023-03-20T08:47:21.427Z,11.27
2023-03-20T08:49:49.091Z,11.32
2023-03-20T08:52:16.751Z,11.39
2023-03-20T08:54:44.523Z,11.45
2023-03-20T08:57:12.892Z,11.51
2023-03-20T08:59:40.659Z,11.59
2023-03-20T09:02:08.549Z,11.67
2023-03-20T09:04:36.771Z,11.73
2023-03-20T09:07:04.767Z,11.78
2023-03-20T09:09:32.736Z,11.84
2023-03-20T09:12:01.548Z,11.91
2023-03-20T09:14:29.500Z,11.99
2023-03-20T09:16:57.255Z,12.09
2023-03-20T09:19:24.917Z,12.19
2023-03-20T09:21:52.577Z,12.29
2023-03-20T09:24:20.448Z,12.39
2023-03-20T09:26:48.108Z,12.46
2023-03-20T09:29:15.976Z,12.53
2023-03-20T09:31:43.640Z,12.63
2023-03-20T09:34:11.910Z,12.73
2023-03-20T09:36:39.573Z,12.83
2023-03-20T09:39:07.244Z,12.94
2023-03-20T09:41:52.841Z,13.06
2023-03-20T09:44:23.654Z,13.20
2023-03-20T09:46:51.732Z,13.32
2023-03-20T09:49:19.694Z,13.44
2023-03-20T09:51:47.467Z,13.54
2023-03-20T09:54:15.221Z,13.64
2023-03-20T09:56:42.985Z,13.76
2023-03-20T09:59:10.647Z,13.86
2023-03-20T10:01:39.771Z,13.90
2023-03-20T10:04:07.750Z,13.91
2023-03-20T10:06:35.478Z,13.92
2023-03-20T10:09:03.341Z,13.94
2023-03-20T10:11:31.207Z,13.98
2023-03-20T10:13:58.978Z,14.04
2023-03-20T10:16:26.685Z,14.09
2023-03-20T10:18:54.500Z,14.12
2023-03-20T10:21:23.807Z,14.15
2023-03-20T10:23:51.566Z,14.21
2023-03-20T10:26:19.226Z,14.29
2023-03-20T10:28:47.193Z,14.39
2023-03-20T10:31:14.891Z,14.50
2023-03-20T10:33:42.620Z,14.56
2023-03-20T10:36:10.478Z,14.59
2023-03-20T10:38:38.250Z,14.63
2023-03-20T10:41:06.117Z,14.66
2023-03-20T10:43:38.190Z,14.68
2023-03-20T10:46:08.507Z,14.72
2023-03-20T10:48:36.168Z,14.75
2023-03-20T10:51:04.032Z,14.73
2023-03-20T10:53:32.103Z,14.69
2023-03-20T10:55:59.970Z,14.63
2023-03-20T10:58:27.734Z,14.58
2023-03-20T11:00:55.569Z,14.54
2023-03-20T11:03:23.775Z,14.50
2023-03-20T11:06:08.238Z,14.47
2023-03-20T11:08:37.124Z,14.45
2023-03-20T11:11:04.787Z,14.46
2023-03-20T11:13:32.755Z,14.49
2023-03-20T11:16:00.724Z,14.50
2023-03-20T11:18:28.385Z,14.54
2023-03-20T11:20:56.156Z,14.58
2023-03-20T11:23:23.814Z,14.62
2023-03-20T11:25:52.089Z,14.65
2023-03-20T11:28:19.855Z,14.69
2023-03-20T11:31:03.594Z,14.73
2023-03-20T11:33:32.080Z,14.78
2023-03-20T11:35:59.873Z,14.85
2023-03-20T11:38:27.701Z,14.91
2023-03-20T11:40:55.354Z,14.99
2023-03-20T11:43:23.123Z,15.07
2023-03-20T11:45:51.127Z,15.16
2023-03-20T11:48:19.480Z,15.27
2023-03-20T11:50:47.233Z,15.34
2023-03-20T11:53:14.896Z,15.40
2023-03-20T11:55:42.558Z,15.42
2023-03-20T11:58:10.526Z,15.42
2023-03-20T12:00:38.387Z,15.41
2023-03-20T12:03:07.258Z,15.40
2023-03-20T12:05:36.645Z,15.38
2023-03-20T12:08:04.460Z,15.38
2023-03-20T12:10:32.219Z,15.40
2023-03-20T12:12:59.878Z,15.44
2023-03-20T12:15:27.642Z,15.45
2023-03-20T12:17:55.508Z,15.46
2023-03-20T12:20:23.176Z,15.45
2023-03-20T12:22:51.857Z,15.43
2023-03-20T12:25:20.240Z,15.44
2023-03-20T12:27:49.128Z,15.44
2023-03-20T12:30:16.897Z,15.43
2023-03-20T12:32:45.102Z,15.43
2023-03-20T12:35:14.267Z,15.46
2023-03-20T12:37:43.254Z,15.48
2023-03-20T12:40:11.018Z,15.52
2023-03-20T12:42:38.689Z,15.58
2023-03-20T12:45:06.939Z,15.65
2023-03-20T12:47:37.189Z,15.68
2023-03-20T12:50:04.883Z,15.70
2023-03-20T12:52:32.610Z,15.73
2023-03-20T12:55:00.379Z,15.76
2023-03-20T12:57:28.029Z,15.75
2023-03-20T12:59:55.700Z,15.71
2023-03-20T13:02:23.704Z,15.64
2023-03-20T13:04:51.630Z,15.57
2023-03-20T13:07:19.601Z,15.50
2023-03-20T13:09:48.191Z,15.41
2023-03-20T13:12:17.276Z,15.33
2023-03-20T13:14:45.246Z,15.25
2023-03-20T13:17:12.959Z,15.17
2023-03-20T13:19:40.780Z,15.11
2023-03-20T13:22:08.537Z,15.05
2023-03-20T13:24:36.521Z,14.99
2023-03-20T13:27:04.272Z,14.92
2023-03-20T13:29:32.036Z,14.85
2023-03-20T13:31:59.812Z,14.78
2023-03-20T13:34:27.664Z,14.72
2023-03-20T13:36:55.343Z,14.66
2023-03-20T13:39:22.988Z,14.59
2023-03-20T13:41:52.095Z,14.52
2023-03-20T13:44:21.176Z,14.45
2023-03-20T13:46:48.920Z,14.38
2023-03-20T13:49:16.992Z,14.33
2023-03-20T13:51:44.674Z,14.27
2023-03-20T13:54:12.745Z,14.22
2023-03-20T13:56:40.573Z,14.17
2023-03-20T13:59:08.383Z,14.11
2023-03-20T14:01:36.040Z,14.06
2023-03-20T14:04:04.121Z,14.01
2023-03-20T14:06:31.874Z,13.97
2023-03-20T14:08:59.644Z,13.93
2023-03-20T14:11:32.840Z,13.88
2023-03-20T14:14:01.110Z,13.86
2023-03-20T14:16:28.871Z,13.83
2023-03-20T14:18:57.041Z,13.82
2023-03-20T14:21:24.907Z,13.81
2023-03-20T14:23:52.583Z,13.80
2023-03-20T14:26:20.336Z,13.79
2023-03-20T14:28:48.099Z,13.79
2023-03-20T14:31:15.860Z,13.78
2023-03-20T14:33:43.520Z,13.77
2023-03-20T14:36:11.390Z,13.76
2023-03-20T14:38:39.022Z,13.76
2023-03-20T14:41:06.733Z,13.75
2023-03-20T14:43:34.353Z,13.74
2023-03-20T14:46:02.010Z,13.72
2023-03-20T14:48:29.802Z,13.70
2023-03-20T14:50:57.460Z,13.70
2023-03-20T14:53:25.230Z,13.68
2023-03-20T14:55:52.989Z,13.67
2023-03-20T14:58:20.656Z,13.66
2023-03-20T15:00:48.413Z,13.64
2023-03-20T15:03:16.179Z,13.64
2023-03-20T15:05:43.944Z,13.63
2023-03-20T15:08:11.718Z,13.63
2023-03-20T15:10:39.545Z,13.62
2023-03-20T15:13:07.336Z,13.62
2023-03-20T15:15:35.084Z,13.61
2023-03-20T15:18:02.758Z,13.60
2023-03-20T15:20:30.431Z,13.59
2023-03-20T15:22:58.406Z,13.58
2023-03-20T15:25:26.461Z,13.57
2023-03-20T15:27:54.125Z,13.55
2023-03-20T15:30:21.787Z,13.53
2023-03-20T15:32:49.583Z,13.51
2023-03-20T15:35:17.533Z,13.50
2023-03-20T15:37:45.488Z,13.47
2023-03-20T15:40:13.255Z,13.45
2023-03-20T15:42:40.922Z,13.43
2023-03-20T15:45:08.575Z,13.40
2023-03-20T15:47:36.341Z,13.39
2023-03-20T15:50:04.920Z,13.37
2023-03-20T15:52:32.611Z,13.35
2023-03-20T15:55:00.350Z,13.33
2023-03-20T15:57:28.011Z,13.31
2023-03-20T15:59:56.616Z,13.28
2023-03-20T16:02:24.365Z,13.27
2023-03-20T16:04:52.238Z,13.24
2023-03-20T16:07:19.888Z,13.20
2023-03-20T16:09:47.556Z,13.18
2023-03-20T16:12:15.640Z,13.14
2023-03-20T16:14:43.385Z,13.49
2023-03-20T16:17:11.048Z,15.90
2023-03-20T16:19:39.321Z,17.59
2023-03-20T16:22:06.988Z,16.95
2023-03-20T16:24:34.851Z,16.03
2023-03-20T16:27:02.616Z,15.38
2023-03-20T16:29:31.101Z,14.94
2023-03-20T16:31:58.862Z,14.64
2023-03-20T16:34:26.628Z,14.40
2023-03-20T16:36:54.604Z,14.19
2023-03-20T16:39:22.355Z,14.00
2023-03-20T16:41:50.527Z,13.85
2023-03-20T16:44:18.218Z,13.70
2023-03-20T16:46:46.375Z,13.57
2023-03-20T16:49:14.136Z,13.46
2023-03-20T16:51:41.789Z,13.35
2023-03-20T16:54:09.562Z,13.27
2023-03-20T16:56:37.634Z,13.18
2023-03-20T16:59:05.285Z,13.10
2023-03-20T17:01:33.551Z,13.53
2023-03-20T17:04:01.362Z,16.17
2023-03-20T17:06:29.604Z,17.99
2023-03-20T17:08:57.368Z,17.33
2023-03-20T17:11:25.540Z,16.25
2023-03-20T17:13:53.410Z,15.52
2023-03-20T17:16:21.465Z,15.02
2023-03-20T17:18:49.341Z,14.67
2023-03-20T17:21:17.196Z,14.38
2023-03-20T17:23:46.718Z,14.16
2023-03-20T17:26:21.954Z,13.96
2023-03-20T17:28:54.732Z,13.79
2023-03-20T17:31:22.537Z,13.62
2023-03-20T17:33:54.264Z,13.49
2023-03-20T17:36:23.157Z,13.35
2023-03-20T17:38:51.175Z,13.24
2023-03-20T17:41:18.982Z,13.15
2023-03-20T17:43:46.748Z,13.04
2023-03-20T17:46:14.786Z,13.51
2023-03-20T17:48:42.478Z,16.18
2023-03-20T17:51:10.148Z,17.95
2023-03-20T17:53:37.803Z,17.23
2023-03-20T17:56:05.470Z,16.11
2023-03-20T17:58:33.230Z,15.33
2023-03-20T18:01:02.209Z,14.82
2023-03-20T18:03:30.089Z,14.43
2023-03-20T18:05:57.753Z,14.12
2023-03-20T18:08:25.525Z,13.87
2023-03-20T18:10:53.278Z,13.64
2023-03-20T18:13:21.349Z,13.46
2023-03-20T18:15:49.847Z,13.30
2023-03-20T18:18:17.607Z,13.16
2023-03-20T18:20:45.977Z,13.02
2023-03-20T18:23:13.661Z,13.47
2023-03-20T18:25:41.409Z,16.18
2023-03-20T18:28:09.782Z,17.83
2023-03-20T18:30:37.874Z,17.01
2023-03-20T18:33:06.302Z,15.95
2023-03-20T18:35:34.197Z,15.21
2023-03-20T18:38:02.066Z,14.70
2023-03-20T18:40:29.828Z,14.32
2023-03-20T18:43:00.681Z,13.97
2023-03-20T18:45:28.434Z,13.70
2023-03-20T18:47:56.195Z,13.47
2023-03-20T18:50:24.598Z,13.28
2023-03-20T18:52:52.337Z,13.57
2023-03-20T18:55:20.107Z,16.12
2023-03-20T18:57:50.334Z,17.82
2023-03-20T19:00:18.191Z,16.97
2023-03-20T19:02:46.158Z,15.86
2023-03-20T19:05:14.023Z,15.08
2023-03-20T19:07:41.688Z,14.52
2023-03-20T19:10:09.351Z,14.07
2023-03-20T19:12:37.321Z,13.70
2023-03-20T19:15:12.664Z,13.38
2023-03-20T19:17:43.496Z,13.07
2023-03-20T19:20:11.463Z,13.41
2023-03-20T19:22:39.128Z,15.90
2023-03-20T19:25:07.096Z,17.57
2023-03-20T19:27:34.775Z,16.84
2023-03-20T19:30:02.624Z,15.71
2023-03-20T19:32:30.286Z,14.90
2023-03-20T19:35:43.761Z,14.35
2023-03-20T19:37:45.683Z,13.86
2023-03-20T19:40:13.346Z,13.52
2023-03-20T19:43:01.645Z,13.25
2023-03-20T19:45:28.625Z,13.80
2023-03-20T19:47:57.447Z,16.43
2023-03-20T19:50:25.582Z,17.87
2023-03-20T19:52:53.464Z,16.96
2023-03-20T19:55:21.427Z,15.87
2023-03-20T19:57:49.191Z,15.10
2023-03-20T20:03:05.049Z,14.06
2023-03-20T20:05:32.868Z,13.71
2023-03-20T20:08:24.243Z,13.39
2023-03-20T20:10:48.257Z,13.07
2023-03-20T20:13:16.221Z,13.47
2023-03-20T20:15:43.880Z,16.00
2023-03-20T20:18:11.647Z,17.50
2023-03-20T20:21:16.143Z,16.63
2023-03-20T20:23:27.145Z,15.38
2023-03-20T20:25:54.905Z,14.64
2023-03-20T20:28:22.667Z,14.10
2023-03-20T20:30:50.435Z,13.70
2023-03-20T20:33:18.227Z,13.38
2023-03-20T20:36:18.548Z,13.12
2023-03-20T20:38:49.542Z,13.74
2023-03-20T20:41:18.052Z,16.58
2023-03-20T20:44:14.641Z,17.79
2023-03-20T20:46:34.888Z,16.64
2023-03-20T20:49:18.075Z,15.53
2023-03-20T20:51:46.688Z,14.68
2023-03-20T20:54:14.462Z,14.13
2023-03-20T20:56:42.121Z,13.70
2023-03-20T20:59:10.287Z,13.35
2023-03-20T21:01:38.007Z,13.05
2023-03-20T21:04:06.135Z,13.36
2023-03-20T21:07:03.857Z,15.88
2023-03-20T21:09:21.520Z,17.38
2023-03-20T21:11:49.283Z,16.37
2023-03-20T21:14:17.045Z,15.30
2023-03-20T21:16:44.708Z,14.54
2023-03-20T21:19:12.377Z,13.99
2023-03-20T21:21:41.164Z,13.58
2023-03-20T21:24:30.637Z,13.26
2023-03-20T21:26:59.037Z,13.85
2023-03-20T21:29:27.090Z,16.53
2023-03-20T21:31:54.824Z,17.48
2023-03-20T21:34:22.608Z,16.40
2023-03-20T21:36:51.638Z,15.39
2023-03-20T21:39:19.572Z,14.69
2023-03-20T21:41:47.338Z,14.19
2023-03-20T21:44:19.752Z,13.80
2023-03-20T21:47:35.602Z,13.44
2023-03-20T21:58:44.374Z,17.10
2023-03-20T22:09:59.692Z,13.48
2023-03-20T22:13:03.595Z,13.06
2023-03-20T22:15:29.539Z,12.66
2023-03-20T22:24:05.611Z,17.04
2023-03-20T22:29:29.085Z,14.43
2023-03-20T22:32:20.984Z,13.58
2023-03-20T22:35:12.842Z,12.95
2023-03-20T22:37:56.106Z,13.26
2023-03-20T22:40:45.621Z,16.02
2023-03-20T22:43:07.159Z,17.03
2023-03-20T22:45:42.607Z,15.63
2023-03-20T22:48:12.698Z,14.46
2023-03-20T22:50:40.631Z,13.69
2023-03-20T22:53:08.299Z,13.16
2023-03-20T22:55:35.907Z,13.27
2023-03-20T22:58:07.986Z,15.60
2023-03-20T23:00:36.282Z,17.21
2023-03-20T23:03:19.374Z,16.31
2023-03-20T23:05:50.666Z,14.89
2023-03-20T23:08:18.430Z,13.98
2023-03-20T23:10:46.093Z,13.34
2023-03-20T23:13:13.854Z,13.46
2023-03-20T23:15:41.688Z,15.77
2023-03-20T23:18:10.101Z,17.23
2023-03-20T23:20:38.057Z,16.28
2023-03-20T23:23:05.935Z,14.98
2023-03-20T23:25:39.217Z,14.09
2023-03-20T23:28:07.607Z,13.46
2023-03-20T23:30:46.644Z,13.53
2023-03-20T23:33:19.422Z,16.10
2023-03-20T23:35:48.354Z,17.51
2023-03-20T23:38:16.175Z,16.55
2023-03-20T23:40:44.860Z,15.27
2023-03-20T23:43:12.630Z,14.32
2023-03-20T23:45:40.586Z,13.63
2023-03-20T23:48:08.391Z,13.11
2023-03-20T23:50:51.473Z,13.32
2023-03-20T23:53:21.297Z,15.93
2023-03-20T23:55:49.270Z,17.16
2023-03-20T23:58:17.135Z,16.13
